Time;durP1;ratioP1;P1;durP2;ratioP2;P2;SDS_P1;SDS_P2;PMS_P1;PMS_P2;Temp;Humidity;BMP_temperature;BMP_pressure;BME280_temperature;BME280_humidity;BME280_pressure;Samples;Min_cycle;Max_cycle;Signal;HPM_P1;HPM_P2
2021/01/03 00:02:07;;;;;;;15.30;10.57;;;205.10;1766.40;;;;;;4970879;28;20046;-69
2021/01/03 00:04:33;;;;;;;17.02;10.98;;;205.10;1766.40;;;;;;4972132;28;20091;-71
2021/01/03 00:06:59;;;;;;;17.52;10.68;;;205.10;1740.80;;;;;;4972870;28;20380;-70
2021/01/03 00:09:25;;;;;;;11.90;9.00;;;205.20;1740.80;;;;;;4973784;28;20035;-70
2021/01/03 00:11:52;;;;;;;15.60;9.18;;;205.30;1740.80;;;;;;4963580;28;20027;-70
2021/01/03 00:14:18;;;;;;;14.25;9.30;;;205.30;1740.80;;;;;;4971487;28;20054;-70
2021/01/03 00:16:53;;;;;;;13.55;10.38;;;205.30;1766.40;;;;;;4973691;28;20468;-70
2021/01/03 00:19:23;;;;;;;16.58;10.93;;;205.20;1817.60;;;;;;4964435;28;20114;-70
2021/01/03 00:21:49;;;;;;;19.02;12.43;;;205.10;1868.80;;;;;;4968878;28;20047;-69
2021/01/03 00:24:15;;;;;;;16.70;10.40;;;204.90;1894.40;;;;;;4972550;28;20058;-70
2021/01/03 00:26:41;;;;;;;17.77;11.77;;;204.80;1920.00;;;;;;4973639;28;20129;-70
2021/01/03 00:29:07;;;;;;;13.63;9.95;;;204.80;1945.60;;;;;;4993194;28;20022;-71
2021/01/03 00:31:37;;;;;;;14.43;9.50;;;204.80;1945.60;;;;;;4979446;28;20043;-70
2021/01/03 00:34:03;;;;;;;11.40;7.95;;;205.00;1920.00;;;;;;4970911;28;20015;-69
2021/01/03 00:36:29;;;;;;;13.32;8.20;;;205.10;1868.80;;;;;;4964070;28;20400;-69
2021/01/03 00:38:54;;;;;;;11.13;7.95;;;205.30;1843.20;;;;;;4972681;28;20023;-70
2021/01/03 00:41:20;;;;;;;11.82;8.25;;;205.30;1817.60;;;;;;4973487;28;20484;-70
2021/01/03 00:43:46;;;;;;;12.32;8.23;;;205.40;1792.00;;;;;;4972361;28;20455;-70
2021/01/03 00:46:11;;;;;;;13.95;8.93;;;205.50;1766.40;;;;;;4986526;28;20030;-71
2021/01/03 00:48:37;;;;;;;16.67;10.77;;;205.50;1766.40;;;;;;4972833;28;20142;-70
2021/01/03 00:51:03;;;;;;;12.48;9.13;;;205.50;1792.00;;;;;;4972481;28;20038;-71
2021/01/03 00:53:28;;;;;;;12.82;8.27;;;205.50;1766.40;;;;;;4966301;28;20051;-69
2021/01/03 00:55:54;;;;;;;9.70;7.47;;;205.60;1766.40;;;;;;4973330;28;20027;-70
2021/01/03 00:58:20;;;;;;;12.00;7.15;;;205.60;1766.40;;;;;;4973354;28;20041;-69
2021/01/03 01:00:45;;;;;;;10.25;7.15;;;205.70;1766.40;;;;;;4976690;28;20054;-70
2021/01/03 01:03:11;;;;;;;11.10;7.15;;;230.40;1740.80;;;;;;4989040;28;20074;-69
2021/01/03 01:05:37;;;;;;;16.02;7.53;;;230.40;1715.20;;;;;;4971730;28;20456;-70
2021/01/03 01:08:03;;;;;;;16.02;9.07;;;230.40;1740.80;;;;;;4976480;28;20066;-70
2021/01/03 01:10:30;;;;;;;10.40;6.90;;;230.40;1715.20;;;;;;4976196;28;20552;-70
2021/01/03 01:12:58;;;;;;;10.07;6.70;;;230.50;1740.80;;;;;;4979277;28;20118;-69
2021/01/03 01:15:27;;;;;;;12.15;7.10;;;230.50;1715.20;;;;;;4981035;28;20058;-70
2021/01/03 01:17:55;;;;;;;9.75;6.45;;;230.50;1715.20;;;;;;4977765;28;20031;-70
2021/01/03 01:20:27;;;;;;;10.98;7.13;;;230.60;1715.20;;;;;;4986066;28;20030;-70
2021/01/03 01:22:53;;;;;;;13.05;6.88;;;230.60;1689.60;;;;;;4975440;28;20470;-70
2021/01/03 01:25:22;;;;;;;10.25;6.68;;;230.60;1689.60;;;;;;4968533;28;20046;-68
2021/01/03 01:27:48;;;;;;;9.73;6.32;;;230.60;1689.60;;;;;;4980340;28;20068;-69
2021/01/03 01:30:15;;;;;;;11.20;7.30;;;230.70;1689.60;;;;;;4973337;28;20113;-69
2021/01/03 01:32:41;;;;;;;11.90;7.07;;;230.60;1689.60;;;;;;4983109;28;20041;-68
2021/01/03 01:35:09;;;;;;;8.32;6.07;;;230.70;1689.60;;;;;;4981001;28;20022;-68
2021/01/03 01:37:35;;;;;;;9.38;6.50;;;230.60;1689.60;;;;;;4971255;28;20646;-69
2021/01/03 01:40:00;;;;;;;10.35;5.80;;;230.70;1689.60;;;;;;4975310;28;20106;-69
2021/01/03 01:42:26;;;;;;;9.70;6.43;;;230.70;1689.60;;;;;;4970471;28;20053;-69
2021/01/03 01:44:52;;;;;;;10.68;6.60;;;230.70;1689.60;;;;;;4967067;28;20090;-70
2021/01/03 01:47:29;;;;;;;13.15;7.20;;;230.60;1689.60;;;;;;4972861;28;20026;-70
2021/01/03 01:49:59;;;;;;;11.80;7.82;;;230.60;1715.20;;;;;;4969597;28;20031;-70
2021/01/03 01:52:31;;;;;;;9.85;6.78;;;230.60;1715.20;;;;;;4973953;28;20078;-69
2021/01/03 01:55:01;;;;;;;16.35;7.43;;;230.60;1689.60;;;;;;4973870;28;20030;-70
2021/01/03 01:57:45;;;;;;;10.75;6.90;;;230.60;1689.60;;;;;;4970096;28;20043;-70
2021/01/03 02:00:18;;;;;;;11.77;7.40;;;230.60;1689.60;;;;;;4966006;28;20388;-70
2021/01/03 02:02:55;;;;;;;10.98;7.20;;;230.60;1715.20;;;;;;4975950;28;20114;-70
2021/01/03 02:05:45;;;;;;;10.02;6.78;;;230.50;1689.60;;;;;;4975165;28;20049;-71
2021/01/03 02:08:35;;;;;;;13.13;6.90;;;230.50;1715.20;;;;;;4968007;28;20035;-70
2021/01/03 02:11:02;;;;;;;9.50;7.00;;;230.50;1715.20;;;;;;4959411;28;20032;-70
2021/01/03 02:13:35;;;;;;;11.60;6.55;;;230.50;1689.60;;;;;;4973902;28;20031;-70
2021/01/03 02:16:11;;;;;;;9.27;6.72;;;230.50;1689.60;;;;;;4975544;28;20437;-71
2021/01/03 02:18:37;;;;;;;10.30;6.93;;;230.50;1689.60;;;;;;4970326;28;20071;-70
2021/01/03 02:21:18;;;;;;;10.52;6.40;;;230.60;1689.60;;;;;;4968355;28;20031;-69
2021/01/03 02:23:52;;;;;;;12.55;7.47;;;230.60;1689.60;;;;;;4974731;28;20369;-71
2021/01/03 02:26:22;;;;;;;13.10;6.68;;;230.60;1689.60;;;;;;4971887;28;20106;-70
2021/01/03 02:28:49;;;;;;;10.55;6.82;;;230.50;1689.60;;;;;;4969135;28;20023;-69
2021/01/03 02:31:20;;;;;;;11.50;7.07;;;230.50;1689.60;;;;;;4974318;28;20069;-72
2021/01/03 02:33:49;;;;;;;12.57;6.57;;;230.50;1689.60;;;;;;4973512;28;20073;-71
2021/01/03 02:36:50;;;;;;;11.88;7.43;;;230.50;1715.20;;;;;;4966426;28;20392;-70
2021/01/03 02:39:27;;;;;;;10.55;7.35;;;230.50;1715.20;;;;;;4952732;28;20600;-70
2021/01/03 02:41:57;;;;;;;11.38;6.90;;;230.50;1715.20;;;;;;4952315;28;20113;-70
2021/01/03 02:44:23;;;;;;;13.35;7.38;;;230.50;1715.20;;;;;;4972636;28;20035;-71
2021/01/03 02:46:52;;;;;;;10.68;7.30;;;230.40;1715.20;;;;;;4967126;28;20117;-70
2021/01/03 02:49:18;;;;;;;9.73;6.88;;;230.40;1740.80;;;;;;4954061;28;20070;-70
2021/01/03 02:51:44;;;;;;;10.45;7.70;;;230.40;1715.20;;;;;;4948823;28;20087;-71
2021/01/03 02:54:10;;;;;;;14.73;7.18;;;230.40;1740.80;;;;;;4952647;28;20409;-70
2021/01/03 02:56:36;;;;;;;12.18;7.22;;;230.40;1740.80;;;;;;4953055;28;20039;-70
2021/01/03 02:59:02;;;;;;;12.55;7.88;;;205.70;1740.80;;;;;;4951842;28;20027;-70
2021/01/03 03:01:27;;;;;;;12.82;7.78;;;205.70;1740.80;;;;;;4952036;28;20043;-71
2021/01/03 03:03:53;;;;;;;10.02;7.43;;;205.70;1740.80;;;;;;4948745;28;20046;-70
2021/01/03 03:06:19;;;;;;;13.50;7.10;;;205.70;1766.40;;;;;;4950312;28;20078;-70
2021/01/03 03:08:45;;;;;;;11.13;6.93;;;205.70;1740.80;;;;;;4953119;28;20085;-70
2021/01/03 03:11:10;;;;;;;11.82;7.05;;;205.70;1740.80;;;;;;4949680;28;20390;-68
2021/01/03 03:13:36;;;;;;;10.75;6.85;;;205.70;1740.80;;;;;;4951935;28;20182;-70
2021/01/03 03:16:02;;;;;;;11.25;7.35;;;205.70;1740.80;;;;;;4960100;28;20038;-69
2021/01/03 03:18:28;;;;;;;11.50;7.32;;;205.70;1715.20;;;;;;4974494;28;20023;-70
2021/01/03 03:20:53;;;;;;;9.95;7.20;;;230.40;1715.20;;;;;;4973322;28;20515;-71
2021/01/03 03:23:19;;;;;;;11.32;6.85;;;230.40;1715.20;;;;;;4970820;28;20477;-70
2021/01/03 03:25:45;;;;;;;10.40;6.43;;;230.40;1715.20;;;;;;4974433;28;20027;-70
2021/01/03 03:28:10;;;;;;;9.85;6.55;;;230.40;1715.20;;;;;;4979755;28;20106;-70
2021/01/03 03:30:36;;;;;;;12.15;6.53;;;230.40;1715.20;;;;;;4974450;28;20366;-70
2021/01/03 03:33:02;;;;;;;9.93;6.88;;;230.40;1715.20;;;;;;4972600;28;20369;-70
2021/01/03 03:35:31;;;;;;;12.55;7.28;;;230.40;1715.20;;;;;;4973939;28;20477;-69
2021/01/03 03:37:57;;;;;;;9.15;6.85;;;205.70;1740.80;;;;;;4981540;28;20026;-70
2021/01/03 03:40:23;;;;;;;14.52;7.53;;;230.40;1740.80;;;;;;4979564;28;20035;-72
2021/01/03 03:42:50;;;;;;;12.93;6.72;;;205.70;1740.80;;;;;;4970097;28;20035;-69
2021/01/03 03:45:17;;;;;;;11.35;6.78;;;230.40;1740.80;;;;;;4977717;28;20054;-70
2021/01/03 03:47:43;;;;;;;11.00;6.57;;;230.40;1715.20;;;;;;4975324;28;20019;-70
2021/01/03 03:50:15;;;;;;;14.63;6.97;;;230.40;1740.80;;;;;;4973840;28;20491;-70
2021/01/03 03:52:41;;;;;;;11.23;6.95;;;205.70;1740.80;;;;;;4972887;28;20082;-70
2021/01/03 03:55:07;;;;;;;12.60;7.15;;;205.70;1740.80;;;;;;4972274;28;20038;-70
2021/01/03 03:57:33;;;;;;;12.18;7.20;;;230.40;1740.80;;;;;;4972508;28;20492;-71
2021/01/03 03:59:58;;;;;;;12.48;7.70;;;205.70;1740.80;;;;;;4979544;28;20034;-70
2021/01/03 04:02:24;;;;;;;12.25;7.13;;;205.70;1740.80;;;;;;4971086;28;20042;-70
2021/01/03 04:04:50;;;;;;;10.50;7.22;;;205.70;1740.80;;;;;;4971360;28;20493;-70
2021/01/03 04:07:15;;;;;;;12.05;7.53;;;205.70;1740.80;;;;;;4972425;28;20392;-70
2021/01/03 04:09:41;;;;;;;12.18;7.13;;;205.70;1740.80;;;;;;4973623;28;20023;-69
2021/01/03 04:12:07;;;;;;;10.00;7.13;;;205.70;1766.40;;;;;;4974181;28;20079;-70
2021/01/03 04:14:32;;;;;;;10.70;6.93;;;205.70;1740.80;;;;;;4971849;28;20030;-72
2021/01/03 04:17:01;;;;;;;12.52;7.63;;;205.70;1740.80;;;;;;4961010;28;20034;-69
2021/01/03 04:19:27;;;;;;;12.32;7.25;;;205.70;1740.80;;;;;;4972308;28;20670;-73
2021/01/03 04:22:11;;;;;;;11.45;6.93;;;205.70;1740.80;;;;;;4972275;28;20035;-70
2021/01/03 04:24:36;;;;;;;13.57;7.45;;;205.70;1766.40;;;;;;4963877;28;20058;-72
2021/01/03 04:27:05;;;;;;;13.20;7.78;;;205.70;1766.40;;;;;;4970020;28;20473;-70
2021/01/03 04:29:31;;;;;;;11.23;7.25;;;205.70;1766.40;;;;;;4971344;28;20026;-71
2021/01/03 04:31:59;;;;;;;14.75;7.72;;;205.70;1766.40;;;;;;4973450;28;20514;-72
2021/01/03 04:34:26;;;;;;;12.93;7.93;;;205.70;1766.40;;;;;;4979904;28;20069;-71
2021/01/03 04:36:52;;;;;;;13.88;7.30;;;230.40;1766.40;;;;;;4974218;28;20125;-69
2021/01/03 04:39:19;;;;;;;10.80;7.75;;;205.60;1792.00;;;;;;4977187;28;20023;-71
2021/01/03 04:41:46;;;;;;;9.68;6.82;;;205.60;1792.00;;;;;;4990121;28;20031;-71
2021/01/03 04:44:30;;;;;;;12.30;7.07;;;205.70;1792.00;;;;;;4976804;28;20027;-71
2021/01/03 04:47:04;;;;;;;13.18;8.05;;;205.60;1792.00;;;;;;4973680;28;20039;-69
2021/01/03 04:49:38;;;;;;;13.65;8.45;;;205.60;1792.00;;;;;;4965550;28;20043;-71
2021/01/03 04:52:29;;;;;;;14.38;8.18;;;205.60;1792.00;;;;;;4975633;28;20066;-71
2021/01/03 04:55:20;;;;;;;14.13;8.50;;;205.60;1817.60;;;;;;4975435;28;20397;-70
2021/01/03 04:57:49;;;;;;;14.85;10.18;;;205.50;1817.60;;;;;;4975278;28;20060;-71
2021/01/03 05:00:17;;;;;;;13.52;8.18;;;205.50;1843.20;;;;;;4975708;28;20023;-71
2021/01/03 05:03:00;;;;;;;12.07;8.38;;;205.50;1843.20;;;;;;4994098;28;20011;-72
2021/01/03 05:05:48;;;;;;;15.68;8.13;;;205.50;1843.20;;;;;;4983631;28;20054;-73
2021/01/03 05:08:29;;;;;;;11.93;8.05;;;205.50;1843.20;;;;;;4979077;28;20026;-69
2021/01/03 05:10:57;;;;;;;16.42;8.70;;;205.50;1843.20;;;;;;4959611;28;20042;-71
2021/01/03 05:13:40;;;;;;;10.80;8.38;;;205.50;1843.20;;;;;;4975043;28;20031;-71
2021/01/03 05:16:10;;;;;;;12.00;7.47;;;205.50;1868.80;;;;;;4975678;28;20050;-71
2021/01/03 05:18:35;;;;;;;15.85;9.13;;;205.50;1868.80;;;;;;4976687;28;20044;-71
2021/01/03 05:21:07;;;;;;;13.77;8.43;;;205.50;1868.80;;;;;;4971569;28;20039;-71
2021/01/03 05:23:35;;;;;;;13.90;9.43;;;205.40;1868.80;;;;;;4975139;28;20578;-70
2021/01/03 05:26:02;;;;;;;12.77;8.50;;;205.40;1868.80;;;;;;4976388;28;20033;-71
2021/01/03 05:28:35;;;;;;;12.20;8.68;;;205.40;1894.40;;;;;;4975104;28;20026;-71
2021/01/03 05:31:19;;;;;;;11.98;8.48;;;205.40;1894.40;;;;;;4982281;28;20113;-71
2021/01/03 05:33:57;;;;;;;16.17;9.05;;;205.30;1894.40;;;;;;4975330;28;20027;-70
2021/01/03 05:36:26;;;;;;;14.02;8.77;;;205.30;1920.00;;;;;;4974385;28;20097;-70
2021/01/03 05:38:52;;;;;;;15.50;9.93;;;205.30;1920.00;;;;;;4965736;28;20027;-71
2021/01/03 05:41:30;;;;;;;14.48;9.75;;;205.30;1920.00;;;;;;4975654;28;20031;-71
2021/01/03 05:44:10;;;;;;;18.65;11.00;;;205.20;1920.00;;;;;;4973120;28;20050;-69
2021/01/03 05:46:46;;;;;;;14.75;10.05;;;205.10;1945.60;;;;;;4975332;28;20110;-71
2021/01/03 05:49:22;;;;;;;18.17;10.60;;;205.00;1971.20;;;;;;4974527;28;20037;-70
2021/01/03 05:52:11;;;;;;;22.55;11.93;;;204.90;1996.80;;;;;;4974955;28;20055;-70
2021/01/03 05:54:39;;;;;;;16.88;11.80;;;204.80;2022.40;;;;;;4974868;28;20082;-70
2021/01/03 05:57:11;;;;;;;18.27;12.00;;;180.00;2048.00;;;;;;4975350;28;20129;-71
2021/01/03 05:59:39;;;;;;;20.40;12.23;;;180.00;2048.00;;;;;;4966517;28;20373;-71
2021/01/03 06:02:23;;;;;;;22.10;12.48;;;180.00;2048.00;;;;;;4975461;28;20027;-71
2021/01/03 06:05:23;;;;;;;16.55;10.38;;;180.00;2048.00;;;;;;4971370;28;20058;-70
2021/01/03 06:08:11;;;;;;;12.80;8.63;;;180.10;2048.00;;;;;;4971285;28;20131;-70
2021/01/03 06:10:40;;;;;;;15.68;9.55;;;204.80;2022.40;;;;;;4968576;28;20103;-72
2021/01/03 06:13:08;;;;;;;16.27;10.48;;;204.80;2022.40;;;;;;4972818;28;20042;-71
2021/01/03 06:15:56;;;;;;;16.35;9.90;;;204.80;2022.40;;;;;;4971946;28;20022;-70
2021/01/03 06:18:41;;;;;;;14.73;10.05;;;204.90;2022.40;;;;;;4960347;28;20034;-72
2021/01/03 06:21:28;;;;;;;14.85;9.13;;;204.90;2022.40;;;;;;4963321;28;20051;-70
2021/01/03 06:24:08;;;;;;;16.02;9.63;;;204.90;2022.40;;;;;;4966541;28;20062;-70
2021/01/03 06:26:42;;;;;;;17.73;9.60;;;204.90;2022.40;;;;;;4950405;28;20043;-73
2021/01/03 06:29:34;;;;;;;14.70;10.05;;;204.90;2022.40;;;;;;4931515;28;20153;-70
2021/01/03 06:32:08;;;;;;;17.42;11.07;;;179.70;2022.40;;;;;;4932889;28;20920;-72
2021/01/03 06:34:49;;;;;;;14.35;10.05;;;204.90;2022.40;;;;;;4934420;28;20041;-70
2021/01/03 06:37:27;;;;;;;14.25;10.15;;;204.90;2022.40;;;;;;4915543;28;20809;-71
2021/01/03 06:40:07;;;;;;;14.85;10.45;;;204.90;2022.40;;;;;;4935939;28;20798;-75
2021/01/03 06:42:33;;;;;;;18.83;10.75;;;204.90;2022.40;;;;;;4935966;28;20587;-68
2021/01/03 06:45:23;;;;;;;15.98;9.65;;;204.90;2022.40;;;;;;4938269;28;20031;-69
2021/01/03 06:48:17;;;;;;;16.08;10.05;;;204.90;2048.00;;;;;;4930249;28;20062;-68
2021/01/03 06:51:11;;;;;;;17.63;9.73;;;205.00;2048.00;;;;;;4935144;28;20058;-69
2021/01/03 06:53:55;;;;;;;14.27;9.25;;;204.90;2048.00;;;;;;4930206;28;20042;-70
2021/01/03 06:56:42;;;;;;;14.52;9.73;;;204.90;2048.00;;;;;;4929204;28;20470;-68
2021/01/03 06:59:32;;;;;;;13.93;9.88;;;204.90;2073.60;;;;;;4933058;28;20535;-68
2021/01/03 07:01:57;;;;;;;15.45;10.90;;;204.80;2073.60;;;;;;4936475;28;20555;-75
2021/01/03 07:04:33;;;;;;;17.52;10.50;;;204.80;2099.20;;;;;;4937671;28;20914;-80
2021/01/03 07:07:02;;;;;;;15.90;10.80;;;180.10;2099.20;;;;;;4923220;28;20525;-68
2021/01/03 07:09:28;;;;;;;16.20;10.75;;;180.10;2099.20;;;;;;4932995;28;20031;-80
2021/01/03 07:12:00;;;;;;;16.10;10.55;;;204.80;2099.20;;;;;;4926166;28;20118;-69
2021/01/03 07:14:25;;;;;;;18.27;11.27;;;180.10;2124.80;;;;;;4930774;28;20035;-72
2021/01/03 07:16:55;;;;;;;18.42;12.32;;;179.60;2124.80;;;;;;4931062;28;20034;-69
2021/01/03 07:19:30;;;;;;;17.13;11.30;;;180.00;2124.80;;;;;;4934501;28;20149;-68
2021/01/03 07:22:14;;;;;;;17.63;11.18;;;179.70;2124.80;;;;;;4933456;28;20031;-68
2021/01/03 07:24:52;;;;;;;18.15;11.25;;;204.80;2124.80;;;;;;4933846;28;20035;-78
2021/01/03 07:27:38;;;;;;;17.80;12.00;;;180.00;2124.80;;;;;;4926150;28;20117;-68
2021/01/03 07:30:03;;;;;;;20.15;12.25;;;179.90;2150.40;;;;;;4929063;28;20400;-74
2021/01/03 07:32:32;;;;;;;21.00;12.32;;;179.90;2150.40;;;;;;4929608;28;20038;-71
2021/01/03 07:35:00;;;;;;;17.92;11.95;;;179.90;2150.40;;;;;;4930284;28;20026;-70
2021/01/03 07:37:29;;;;;;;21.50;14.02;;;179.90;2150.40;;;;;;4933774;28;20105;-73
2021/01/03 07:40:11;;;;;;;18.17;11.18;;;179.90;2150.40;;;;;;4929112;28;20578;-74
2021/01/03 07:42:42;;;;;;;15.55;11.20;;;179.90;2150.40;;;;;;4935266;28;20116;-69
2021/01/03 07:45:14;;;;;;;15.27;11.07;;;179.90;2150.40;;;;;;4967896;28;20039;-71
2021/01/03 07:47:52;;;;;;;17.60;11.68;;;179.80;2176.00;;;;;;4970087;28;20027;-72
2021/01/03 07:50:30;;;;;;;16.73;10.48;;;179.80;2176.00;;;;;;4973041;28;20117;-72
2021/01/03 07:52:57;;;;;;;16.25;11.10;;;179.70;2201.60;;;;;;4972812;28;20074;-72
2021/01/03 07:55:22;;;;;;;20.05;12.35;;;179.60;2227.20;;;;;;4974495;28;20047;-71
2021/01/03 07:58:06;;;;;;;19.42;12.57;;;179.60;2227.20;;;;;;4961574;28;20576;-72
2021/01/03 08:00:35;;;;;;;15.02;10.77;;;179.60;2227.20;;;;;;4972474;28;20033;-71
2021/01/03 08:03:10;;;;;;;16.55;10.45;;;179.60;2227.20;;;;;;4973910;28;20090;-71
2021/01/03 08:05:37;;;;;;;17.42;11.15;;;179.70;2227.20;;;;;;4973998;28;20027;-71
2021/01/03 08:08:13;;;;;;;14.02;10.02;;;179.70;2201.60;;;;;;4974423;28;20027;-71
2021/01/03 08:10:41;;;;;;;18.90;12.07;;;179.80;2201.60;;;;;;4977260;28;20372;-71
2021/01/03 08:13:19;;;;;;;15.73;10.90;;;179.80;2201.60;;;;;;4977349;28;20073;-71
2021/01/03 08:15:45;;;;;;;18.02;11.20;;;179.80;2201.60;;;;;;4975110;28;20042;-72
2021/01/03 08:18:19;;;;;;;16.20;10.35;;;179.90;2176.00;;;;;;4975805;28;20057;-72
2021/01/03 08:20:45;;;;;;;17.15;10.63;;;179.90;2201.60;;;;;;4977932;28;20031;-72
2021/01/03 08:23:23;;;;;;;18.23;10.82;;;179.90;2176.00;;;;;;4978769;28;20043;-72
2021/01/03 08:26:00;;;;;;;20.52;10.80;;;179.90;2201.60;;;;;;4977564;28;20030;-74
2021/01/03 08:28:25;;;;;;;20.38;11.10;;;179.90;2201.60;;;;;;4977063;28;20027;-72
2021/01/03 08:30:51;;;;;;;22.67;11.90;;;180.00;2201.60;;;;;;4977001;28;20481;-72
2021/01/03 08:33:33;;;;;;;16.02;10.52;;;180.00;2201.60;;;;;;4974841;28;20089;-73
2021/01/03 08:36:14;;;;;;;16.85;11.77;;;180.00;2201.60;;;;;;4977571;28;20069;-72
2021/01/03 08:38:39;;;;;;;19.35;11.60;;;180.00;2176.00;;;;;;4977324;28;20046;-73
2021/01/03 08:41:07;;;;;;;19.27;12.25;;;180.00;2176.00;;;;;;4977136;28;20022;-72
2021/01/03 08:43:35;;;;;;;18.38;11.10;;;180.10;2176.00;;;;;;4976036;28;20535;-72
2021/01/03 08:46:05;;;;;;;17.00;11.63;;;180.10;2176.00;;;;;;4977073;28;20086;-72
2021/01/03 08:48:32;;;;;;;16.60;11.23;;;180.10;2176.00;;;;;;4977073;28;20102;-72
2021/01/03 08:51:05;;;;;;;14.95;10.93;;;204.80;2176.00;;;;;;4977023;28;20038;-72
2021/01/03 08:53:31;;;;;;;18.45;11.65;;;204.90;2176.00;;;;;;4958870;28;20047;-72
2021/01/03 08:56:09;;;;;;;23.02;10.00;;;204.80;2150.40;;;;;;4976975;28;20034;-73
2021/01/03 08:58:39;;;;;;;20.08;10.82;;;204.90;2150.40;;;;;;4976637;28;20082;-73
2021/01/03 09:01:16;;;;;;;16.33;11.35;;;204.90;2150.40;;;;;;4976422;28;20113;-72
2021/01/03 09:03:43;;;;;;;16.55;10.68;;;205.00;2150.40;;;;;;4976823;28;20027;-71
2021/01/03 09:06:09;;;;;;;17.80;11.07;;;205.20;2099.20;;;;;;4974958;28;20485;-71
2021/01/03 09:08:41;;;;;;;16.13;10.60;;;205.30;2073.60;;;;;;4972955;28;20139;-72
2021/01/03 09:11:22;;;;;;;17.70;10.82;;;205.40;2073.60;;;;;;4968189;28;20499;-71
2021/01/03 09:13:53;;;;;;;16.50;10.07;;;205.40;2048.00;;;;;;4976387;28;20092;-70
2021/01/03 09:16:27;;;;;;;19.73;11.73;;;205.40;2073.60;;;;;;4976141;28;20499;-73
2021/01/03 09:19:17;;;;;;;15.73;10.00;;;205.40;2073.60;;;;;;4975566;28;20022;-72
2021/01/03 09:21:53;;;;;;;15.68;10.35;;;205.40;2073.60;;;;;;4961728;28;20039;-71
2021/01/03 09:24:25;;;;;;;16.65;10.07;;;205.50;2048.00;;;;;;4958569;28;20062;-70
2021/01/03 09:26:53;;;;;;;22.63;14.35;;;205.60;2048.00;;;;;;4954797;28;20872;-68
2021/01/03 09:29:26;;;;;;;22.98;12.52;;;205.70;2022.40;;;;;;4928784;28;20027;-69
2021/01/03 09:31:57;;;;;;;17.15;10.73;;;230.40;2048.00;;;;;;4932306;28;20047;-69
2021/01/03 09:34:53;;;;;;;15.57;9.77;;;230.60;2022.40;;;;;;4926526;28;20058;-69
2021/01/03 09:37:31;;;;;;;17.10;9.82;;;230.50;2022.40;;;;;;4937247;28;20049;-69
2021/01/03 09:40:22;;;;;;;23.25;15.18;;;230.40;2022.40;;;;;;4935209;28;20090;-68
2021/01/03 09:43:21;;;;;;;14.35;10.63;;;230.50;2022.40;;;;;;4922467;28;20147;-70
2021/01/03 09:46:09;;;;;;;13.88;9.45;;;230.50;2022.40;;;;;;4926020;28;20030;-72
2021/01/03 09:48:38;;;;;;;14.68;8.88;;;230.60;1996.80;;;;;;4923630;28;20230;-67
2021/01/03 09:51:12;;;;;;;20.85;11.45;;;230.60;1971.20;;;;;;4926123;28;20037;-75
2021/01/03 09:53:39;;;;;;;22.92;12.23;;;230.70;1971.20;;;;;;4937900;28;20120;-80
2021/01/03 09:56:26;;;;;;;23.60;10.68;;;230.70;1945.60;;;;;;4928488;28;20038;-75
2021/01/03 09:58:52;;;;;;;15.82;8.90;;;230.90;1945.60;;;;;;4937693;28;20145;-73
2021/01/03 10:01:34;;;;;;;56.67;20.38;;;231.00;1945.60;;;;;;4937145;28;20104;-73
2021/01/03 10:04:21;;;;;;;24.83;10.27;;;231.20;1920.00;;;;;;4937271;28;20034;-70
2021/01/03 10:06:55;;;;;;;33.50;9.98;;;256.10;1996.80;;;;;;4938659;28;20609;-72
2021/01/03 10:09:23;;;;;;;11.25;6.00;;;256.30;1920.00;;;;;;4939120;28;20782;-71
2021/01/03 10:11:51;;;;;;;8.48;5.80;;;256.50;1868.80;;;;;;4935552;28;20551;-72
2021/01/03 10:14:32;;;;;;;7.68;4.55;;;256.60;1766.40;;;;;;4927611;28;20039;-71
2021/01/03 10:17:19;;;;;;;11.80;6.10;;;256.70;1740.80;;;;;;4940677;28;20542;-72
2021/01/03 10:19:45;;;;;;;14.20;7.40;;;256.70;1766.40;;;;;;4940418;28;20121;-71
2021/01/03 10:22:40;;;;;;;10.30;5.85;;;256.80;1894.40;;;;;;4932649;28;20031;-72
2021/01/03 10:25:10;;;;;;;15.30;9.15;;;256.80;1817.60;;;;;;4927844;28;20568;-73
2021/01/03 10:27:36;;;;;;;14.32;8.23;;;256.80;1971.20;;;;;;4933287;28;20027;-74
2021/01/03 10:30:05;;;;;;;13.38;8.13;;;282.00;2048.00;;;;;;4933272;28;20038;-72
2021/01/03 10:32:30;;;;;;;12.80;7.13;;;256.90;1868.80;;;;;;4930099;28;20932;-71
2021/01/03 10:34:56;;;;;;;12.95;7.22;;;256.90;1817.60;;;;;;4930784;28;20039;-69
2021/01/03 10:37:22;;;;;;;11.48;6.80;;;281.60;1843.20;;;;;;4935581;28;20441;-73
2021/01/03 10:39:48;;;;;;;10.23;6.82;;;281.60;1817.60;;;;;;4934909;28;20037;-74
2021/01/03 10:42:14;;;;;;;13.35;8.00;;;281.70;1792.00;;;;;;4931588;28;20444;-74
2021/01/03 10:44:46;;;;;;;11.85;6.85;;;281.80;1843.20;;;;;;4936043;28;20037;-74
2021/01/03 10:47:12;;;;;;;12.00;7.22;;;282.00;1817.60;;;;;;4936083;28;20077;-76
2021/01/03 10:49:38;;;;;;;14.50;8.30;;;282.10;1817.60;;;;;;4938686;28;20078;-74
2021/01/03 10:52:04;;;;;;;13.57;6.90;;;282.20;1792.00;;;;;;4937053;28;20054;-72
2021/01/03 10:54:30;;;;;;;10.98;7.28;;;282.30;1740.80;;;;;;4931642;28;20556;-69
2021/01/03 10:56:57;;;;;;;10.20;6.60;;;282.30;1715.20;;;;;;4931557;28;20037;-69
2021/01/03 10:59:25;;;;;;;12.50;6.75;;;282.40;1715.20;;;;;;4937573;28;20042;-70
2021/01/03 11:01:52;;;;;;;11.43;6.82;;;282.20;1689.60;;;;;;4938293;28;20117;-69
2021/01/03 11:04:21;;;;;;;13.05;8.73;;;282.50;1715.20;;;;;;4935298;28;20457;-67
2021/01/03 11:06:49;;;;;;;16.25;11.88;;;282.50;1664.00;;;;;;4931738;28;20031;-67
2021/01/03 11:09:26;;;;;;;12.57;8.70;;;281.90;1689.60;;;;;;4937100;28;20129;-69
2021/01/03 11:12:01;;;;;;;13.57;8.10;;;282.50;1689.60;;;;;;4939754;28;20042;-77
2021/01/03 11:14:27;;;;;;;16.25;11.93;;;282.50;1664.00;;;;;;4937336;28;20046;-83
2021/01/03 11:16:54;;;;;;;17.10;10.32;;;282.50;1664.00;;;;;;4944617;28;20046;-69
2021/01/03 11:19:19;;;;;;;17.58;9.80;;;282.40;1689.60;;;;;;4935551;28;20035;-69
2021/01/03 11:21:59;;;;;;;13.80;8.60;;;282.30;1715.20;;;;;;4933798;28;20062;-69
2021/01/03 11:24:25;;;;;;;15.73;10.88;;;282.20;1715.20;;;;;;4926723;28;20062;-73
2021/01/03 11:26:51;;;;;;;14.70;8.63;;;282.20;1715.20;;;;;;4920728;28;20027;-71
2021/01/03 11:29:20;;;;;;;14.35;9.52;;;282.30;1715.20;;;;;;4926484;28;20846;-73
2021/01/03 11:31:52;;;;;;;15.82;9.10;;;282.50;1715.20;;;;;;4925794;28;20047;-67
2021/01/03 11:34:21;;;;;;;14.88;9.38;;;307.20;1715.20;;;;;;4927847;28;20074;-71
2021/01/03 11:36:54;;;;;;;12.90;8.35;;;282.20;1664.00;;;;;;4924753;28;20182;-71
2021/01/03 11:39:20;;;;;;;12.15;8.48;;;307.30;1689.60;;;;;;4922782;28;20835;-78
2021/01/03 11:41:51;;;;;;;16.23;9.68;;;307.20;1664.00;;;;;;4924001;28;20106;-77
2021/01/03 11:44:19;;;;;;;14.13;8.27;;;307.20;1689.60;;;;;;4930740;28;20863;-76
2021/01/03 11:46:46;;;;;;;16.02;9.02;;;282.50;1664.00;;;;;;4926440;28;20087;-75
2021/01/03 11:49:12;;;;;;;17.88;10.02;;;282.40;1664.00;;;;;;4922872;28;20031;-79
2021/01/03 11:51:40;;;;;;;13.10;9.00;;;282.40;1689.60;;;;;;4928672;28;20070;-69
2021/01/03 11:54:07;;;;;;;13.35;8.93;;;281.80;1689.60;;;;;;4919003;28;20871;-71
2021/01/03 11:56:33;;;;;;;14.98;8.00;;;282.10;1689.60;;;;;;4919194;28;20134;-72
2021/01/03 11:58:59;;;;;;;16.85;9.60;;;282.10;1715.20;;;;;;4923025;28;20027;-68
2021/01/03 12:01:26;;;;;;;16.10;9.38;;;282.30;1715.20;;;;;;4920293;28;20031;-70
2021/01/03 12:03:52;;;;;;;13.27;8.82;;;281.90;1740.80;;;;;;4924777;28;20137;-69
2021/01/03 12:06:23;;;;;;;14.10;9.10;;;282.20;1715.20;;;;;;4930615;28;20027;-80
2021/01/03 12:08:49;;;;;;;14.95;9.30;;;282.20;1715.20;;;;;;4938580;28;20137;-68
2021/01/03 12:11:17;;;;;;;14.95;9.25;;;282.20;1715.20;;;;;;4933499;28;20034;-69
2021/01/03 12:13:55;;;;;;;13.25;8.55;;;282.30;1715.20;;;;;;4931672;28;20368;-70
2021/01/03 12:16:27;;;;;;;19.50;12.02;;;282.30;1715.20;;;;;;4933287;28;20232;-73
2021/01/03 12:18:53;;;;;;;20.85;12.07;;;282.40;1689.60;;;;;;4931108;28;20178;-73
2021/01/03 12:21:21;;;;;;;15.40;9.02;;;307.20;1740.80;;;;;;4932565;28;20500;-79
2021/01/03 12:23:47;;;;;;;14.43;8.40;;;282.50;1689.60;;;;;;4929919;28;20090;-69
2021/01/03 12:26:13;;;;;;;14.98;7.82;;;307.20;1715.20;;;;;;4934034;28;20537;-70
2021/01/03 12:28:38;;;;;;;13.25;8.30;;;282.40;1689.60;;;;;;4933845;28;20030;-69